Time;durP1;ratioP1;P1;durP2;ratioP2;P2;SDS_P1;SDS_P2;PMS_P1;PMS_P2;Temp;Humidity;BMP_temperature;BMP_pressure;BME280_temperature;BME280_humidity;BME280_pressure;Samples;Min_cycle;Max_cycle;Signal;HPM_P1;HPM_P2
2022/01/29 00:01:46;;;;;;;37.17;10.23;;;;;;;11.65;95.42;102542.19;7390850;19;20021;-65
2022/01/29 00:04:27;;;;;;;5.82;3.45;;;;;;;11.63;94.91;102533.53;7391132;19;20038;-66
2022/01/29 00:07:05;;;;;;;14.57;5.88;;;;;;;11.56;94.37;102525.28;7387538;19;20014;-66
2022/01/29 00:09:34;;;;;;;17.92;7.63;;;;;;;11.57;94.73;102520.84;7389114;19;20782;-68
2022/01/29 00:12:03;;;;;;;16.67;6.55;;;;;;;11.59;94.94;102517.13;7392969;19;20018;-65
2022/01/29 00:14:32;;;;;;;12.68;5.65;;;;;;;11.63;95.02;102524.81;7391078;19;20101;-66
2022/01/29 00:16:59;;;;;;;5.18;2.92;;;;;;;11.64;94.29;102524.69;7391706;19;20011;-66
2022/01/29 00:19:44;;;;;;;5.47;3.03;;;;;;;11.66;94.18;102521.94;7390299;19;20102;-66
2022/01/29 00:22:22;;;;;;;7.00;3.30;;;;;;;11.65;93.74;102522.88;7389799;19;20006;-65
2022/01/29 00:25:02;;;;;;;13.15;5.68;;;;;;;11.66;93.17;102525.41;7391898;19;20036;-66
2022/01/29 00:27:37;;;;;;;7.38;4.30;;;;;;;11.69;93.53;102513.78;7386568;19;20007;-66
2022/01/29 00:30:13;;;;;;;4.72;2.60;;;;;;;11.70;93.88;102518.94;7389404;19;20017;-68
2022/01/29 00:32:51;;;;;;;7.45;4.00;;;;;;;11.72;94.06;102509.13;7388809;19;20373;-65
2022/01/29 00:35:24;;;;;;;5.55;2.78;;;;;;;11.73;93.60;102508.19;7391774;19;20440;-74
2022/01/29 00:37:53;;;;;;;12.45;7.40;;;;;;;11.73;93.12;102500.28;7386007;19;20010;-65
2022/01/29 00:40:22;;;;;;;8.45;4.45;;;;;;;11.72;93.49;102493.31;7388283;19;20019;-69
2022/01/29 00:42:51;;;;;;;4.93;2.38;;;;;;;11.73;93.25;102488.91;7386704;19;20036;-66
2022/01/29 00:45:24;;;;;;;7.07;3.72;;;;;;;11.72;93.55;102488.03;7388793;19;20038;-67
2022/01/29 00:48:09;;;;;;;5.28;2.60;;;;;;;11.76;94.18;102483.38;7391642;19;20018;-66
2022/01/29 00:50:40;;;;;;;7.10;3.42;;;;;;;11.76;93.59;102478.09;7388117;19;20007;-67
2022/01/29 00:53:08;;;;;;;14.70;6.35;;;;;;;11.77;93.69;102479.78;7387326;19;20014;-66
2022/01/29 00:55:36;;;;;;;5.30;2.42;;;;;;;11.79;93.78;102478.69;7390689;19;20006;-64
2022/01/29 00:58:11;;;;;;;3.55;1.83;;;;;;;11.79;93.33;102475.22;7386613;19;20110;-67
2022/01/29 01:00:39;;;;;;;4.13;1.70;;;;;;;11.76;93.02;102475.47;7389670;19;20090;-66
2022/01/29 01:03:06;;;;;;;4.45;2.30;;;;;;;11.79;93.22;102462.03;7386510;19;20014;-65
2022/01/29 01:05:34;;;;;;;5.45;1.95;;;;;;;11.80;93.17;102463.72;7391061;19;20015;-67
2022/01/29 01:08:01;;;;;;;7.22;3.10;;;;;;;11.83;92.91;102463.50;7387869;19;20007;-67
2022/01/29 01:10:31;;;;;;;3.97;2.08;;;;;;;11.86;93.27;102466.72;7393006;19;20062;-67
2022/01/29 01:12:59;;;;;;;3.40;1.83;;;;;;;11.87;93.07;102460.50;7397476;19;20087;-66
2022/01/29 01:15:26;;;;;;;6.50;1.75;;;;;;;11.87;92.77;102464.91;7396436;19;20090;-66
2022/01/29 01:17:54;;;;;;;4.35;1.90;;;;;;;11.86;92.96;102466.72;7394725;19;20007;-65
2022/01/29 01:20:21;;;;;;;3.78;1.85;;;;;;;11.87;93.00;102465.75;7398784;19;20088;-66
2022/01/29 01:22:49;;;;;;;2.83;1.35;;;;;;;11.89;92.85;102465.63;7395055;19;20031;-67
2022/01/29 01:25:16;;;;;;;4.28;2.13;;;;;;;11.89;92.99;102453.28;7400049;19;20593;-66
2022/01/29 01:27:43;;;;;;;8.68;3.67;;;;;;;11.89;92.66;102457.72;7393696;19;20010;-66
2022/01/29 01:30:12;;;;;;;9.45;3.97;;;;;;;11.88;92.66;102451.63;7397778;19;20034;-67
2022/01/29 01:32:39;;;;;;;15.48;5.85;;;;;;;11.89;93.02;102455.91;7396047;19;20010;-65
2022/01/29 01:35:16;;;;;;;8.40;3.60;;;;;;;11.92;93.58;102453.06;7398995;19;20011;-65
2022/01/29 01:40:16;;;;;;;4.75;1.85;;;;;;;11.95;93.73;102450.16;7398599;19;20086;-65
2022/01/29 01:42:44;;;;;;;4.53;1.33;;;;;;;11.97;93.34;102453.53;7393872;19;20015;-66
2022/01/29 01:45:12;;;;;;;5.07;1.55;;;;;;;11.99;93.48;102456.03;7394597;19;20078;-66
2022/01/29 01:47:39;;;;;;;4.13;1.20;;;;;;;11.96;93.42;102451.84;7391334;19;20033;-65
2022/01/29 01:50:08;;;;;;;3.08;1.15;;;;;;;11.98;93.12;102449.09;7394260;19;20042;-67
2022/01/29 01:52:41;;;;;;;5.32;1.63;;;;;;;12.00;93.03;102444.50;7396364;19;20019;-66
2022/01/29 01:55:08;;;;;;;;;;;;;;;11.99;93.09;102446.31;7398236;19;20086;-65
2022/01/29 01:57:36;;;;;;;1.95;0.50;;;;;;;12.00;92.95;102437.44;7397202;19;19927;-67
2022/01/29 02:00:04;;;;;;;8.25;2.83;;;;;;;12.00;92.59;102432.16;7394029;19;20015;-66
2022/01/29 02:02:32;;;;;;;5.55;1.23;;;;;;;12.02;92.64;102432.06;7393467;19;20387;-65
2022/01/29 02:05:00;;;;;;;1.83;0.60;;;;;;;12.08;92.80;102428.94;7398718;19;20015;-65
2022/01/29 02:07:29;;;;;;;3.53;0.98;;;;;;;12.13;92.92;102434.69;7393154;19;20034;-67
2022/01/29 02:09:56;;;;;;;3.58;0.80;;;;;;;12.16;92.59;102434.41;7396621;19;20077;-68
2022/01/29 02:12:27;;;;;;;0.95;0.40;;;;;;;12.20;92.37;102425.28;7397752;19;20010;-66
2022/01/29 02:14:59;;;;;;;4.50;0.30;;;;;;;12.22;92.02;102423.38;7396172;19;20026;-66
2022/01/29 02:17:27;;;;;;;2.37;0.40;;;;;;;12.20;91.17;102414.72;7394438;19;20037;-66
2022/01/29 02:19:55;;;;;;;4.82;0.88;;;;;;;12.20;91.49;102414.72;7397088;19;20036;-66
2022/01/29 02:22:23;;;;;;;0.93;0.30;;;;;;;12.24;91.54;102417.97;7390290;19;20600;-65
2022/01/29 02:24:50;;;;;;;0.70;0.22;;;;;;;12.29;91.28;102419.25;7394025;19;20806;-67
2022/01/29 02:27:17;;;;;;;1.27;0.50;;;;;;;12.29;91.22;102411.34;7392959;19;20011;-66
2022/01/29 02:29:49;;;;;;;1.60;0.30;;;;;;;12.24;91.21;102415.34;7391468;19;20111;-65
2022/01/29 02:32:19;;;;;;;8.02;3.30;;;;;;;12.27;91.27;102410.66;7391931;19;20439;-67
2022/01/29 02:34:49;;;;;;;1.98;0.50;;;;;;;12.24;91.48;102415.34;7394023;19;20026;-68
2022/01/29 02:37:19;;;;;;;16.65;3.55;;;;;;;12.28;91.49;102411.47;7390964;19;20014;-67
2022/01/29 02:39:47;;;;;;;11.25;4.95;;;;;;;12.28;91.83;102406.22;7394411;19;20022;-66
2022/01/29 02:42:14;;;;;;;1.05;0.50;;;;;;;12.31;92.37;102401.50;7395966;19;20014;-66
2022/01/29 02:44:42;;;;;;;4.53;1.05;;;;;;;12.32;92.69;102392.63;7396672;19;20068;-67
2022/01/29 02:47:26;;;;;;;1.15;0.50;;;;;;;12.26;92.05;102389.66;7392322;19;20515;-65
2022/01/29 02:49:54;;;;;;;4.82;2.10;;;;;;;12.25;92.06;102378.25;7396412;19;20029;-64
2022/01/29 02:52:22;;;;;;;14.85;2.45;;;;;;;12.27;92.41;102376.34;7391600;19;20007;-66
2022/01/29 02:54:49;;;;;;;17.38;6.97;;;;;;;12.29;93.30;102379.66;7394665;19;20021;-66
2022/01/29 02:57:18;;;;;;;2.22;0.50;;;;;;;12.29;92.90;102374.38;7391732;19;20410;-66
2022/01/29 02:59:46;;;;;;;4.60;1.48;;;;;;;12.26;92.42;102369.38;7393649;19;20006;-66
2022/01/29 03:02:13;;;;;;;6.85;2.70;;;;;;;12.24;92.42;102373.94;7393479;19;20007;-66
2022/01/29 03:04:41;;;;;;;3.42;0.68;;;;;;;12.25;92.80;102362.41;7395780;19;20017;-67
2022/01/29 03:07:08;;;;;;;2.60;1.60;;;;;;;12.22;92.78;102360.03;7391940;19;20159;-65
2022/01/29 03:09:36;;;;;;;2.38;0.50;;;;;;;12.24;92.64;102362.56;7394115;19;20019;-66
2022/01/29 03:12:04;;;;;;;4.30;1.67;;;;;;;12.25;92.76;102354.50;7391901;19;20027;-66
2022/01/29 03:14:31;;;;;;;8.40;3.72;;;;;;;12.29;93.24;102355.09;7391286;19;20031;-65
2022/01/29 03:16:58;;;;;;;3.95;0.60;;;;;;;12.31;92.97;102347.88;7393766;19;20346;-66
2022/01/29 03:19:25;;;;;;;26.20;9.73;;;;;;;12.31;92.73;102345.25;7396086;19;20007;-65
2022/01/29 03:21:53;;;;;;;5.57;2.25;;;;;;;12.32;93.07;102339.84;7393239;19;20006;-66
2022/01/29 03:24:20;;;;;;;0.70;0.30;;;;;;;12.30;92.39;102343.56;7394999;19;20022;-66
2022/01/29 03:26:47;;;;;;;4.45;1.02;;;;;;;12.29;92.20;102345.34;7388924;19;20077;-66
2022/01/29 03:29:15;;;;;;;0.50;0.20;;;;;;;12.29;91.96;102340.06;7393351;19;20086;-65
2022/01/29 03:31:43;;;;;;;7.18;2.95;;;;;;;12.31;91.44;102340.81;7392107;19;20078;-66
2022/01/29 03:34:11;;;;;;;1.33;0.40;;;;;;;12.33;91.50;102344.16;7391714;19;20027;-66
2022/01/29 03:36:38;;;;;;;0.50;0.22;;;;;;;12.34;91.40;102345.00;7389779;19;20092;-66
2022/01/29 03:39:06;;;;;;;0.50;0.10;;;;;;;12.35;90.73;102347.50;7393308;19;20301;-65
2022/01/29 03:41:33;;;;;;;1.00;0.20;;;;;;;12.36;90.63;102335.13;7395623;19;20011;-68
2022/01/29 03:44:04;;;;;;;3.15;1.25;;;;;;;12.40;90.35;102342.69;7391394;19;20027;-66
2022/01/29 03:46:32;;;;;;;2.40;0.50;;;;;;;12.42;90.46;102340.75;7389450;19;20518;-67
2022/01/29 03:49:00;;;;;;;1.98;0.13;;;;;;;12.44;90.29;102348.56;7391204;19;20127;-66
2022/01/29 03:51:27;;;;;;;3.33;0.65;;;;;;;12.47;90.32;102336.88;7393595;19;20014;-66
2022/01/29 03:53:54;;;;;;;0.63;0.20;;;;;;;12.45;89.76;102342.28;7389589;19;20007;-66
2022/01/29 03:56:22;;;;;;;0.65;0.20;;;;;;;12.47;89.43;102340.38;7389496;19;20011;-66
2022/01/29 03:58:49;;;;;;;1.10;0.20;;;;;;;12.47;89.50;102337.72;7389474;19;20014;-65
2022/01/29 04:01:17;;;;;;;1.25;0.20;;;;;;;12.52;88.67;102340.00;7389397;19;20014;-65
2022/01/29 04:03:44;;;;;;;4.70;1.33;;;;;;;12.55;88.97;102345.00;7389121;19;20011;-66
2022/01/29 04:06:12;;;;;;;1.73;0.20;;;;;;;12.55;89.11;102345.00;7393141;19;20027;-67
2022/01/29 04:08:41;;;;;;;4.97;1.27;;;;;;;12.54;88.77;102343.34;7390978;19;20085;-66
2022/01/29 04:11:12;;;;;;;1.23;0.30;;;;;;;12.55;88.05;102342.34;7391376;19;20448;-65
2022/01/29 04:13:42;;;;;;;2.13;0.30;;;;;;;12.54;88.21;102338.06;7389996;19;20060;-65
2022/01/29 04:16:12;;;;;;;1.50;0.60;;;;;;;12.55;88.16;102332.63;7390717;19;20515;-65
2022/01/29 04:18:40;;;;;;;1.52;0.20;;;;;;;12.56;88.31;102339.59;7392230;19;20007;-66
2022/01/29 04:21:07;;;;;;;2.47;0.80;;;;;;;12.58;88.26;102342.13;7390245;19;20017;-65
2022/01/29 04:23:36;;;;;;;1.45;0.38;;;;;;;12.56;88.05;102336.97;7390068;19;20006;-66
2022/01/29 04:26:05;;;;;;;1.63;0.47;;;;;;;12.56;88.03;102331.69;7393435;19;20070;-65
2022/01/29 04:28:38;;;;;;;11.00;3.60;;;;;;;12.58;88.21;102332.41;7387166;19;20011;-67
2022/01/29 04:31:12;;;;;;;4.15;1.35;;;;;;;12.58;88.19;102332.41;7388743;19;20560;-66
2022/01/29 04:33:40;;;;;;;3.00;0.88;;;;;;;12.59;88.20;102327.97;7388265;19;20015;-66
2022/01/29 04:36:08;;;;;;;8.55;3.42;;;;;;;12.56;87.83;102323.75;7390507;19;20046;-67
2022/01/29 04:38:36;;;;;;;1.42;0.57;;;;;;;12.59;87.87;102330.59;7387149;19;20014;-65
2022/01/29 04:41:05;;;;;;;3.83;0.90;;;;;;;12.60;87.81;102324.31;7389697;19;20045;-65
2022/01/29 04:43:34;;;;;;;2.33;0.57;;;;;;;12.60;87.73;102332.25;7388420;19;20375;-65
2022/01/29 04:46:06;;;;;;;1.50;0.50;;;;;;;12.60;87.92;102333.09;7388774;19;20456;-66
2022/01/29 04:48:34;;;;;;;1.45;0.47;;;;;;;12.59;87.28;102325.31;7392063;19;20464;-68
2022/01/29 04:51:01;;;;;;;1.27;0.30;;;;;;;12.59;87.11;102330.59;7388483;19;20010;-64
2022/01/29 04:53:28;;;;;;;2.40;0.30;;;;;;;12.59;86.97;102326.16;7393341;19;20377;-67
2022/01/29 04:55:56;;;;;;;1.30;0.40;;;;;;;12.60;86.66;102332.25;7392277;19;20510;-65
2022/01/29 04:58:23;;;;;;;1.55;0.40;;;;;;;12.63;86.95;102326.72;7393395;19;20151;-65
2022/01/29 05:00:51;;;;;;;1.38;0.40;;;;;;;12.62;86.38;102325.88;7389549;19;20018;-65
2022/01/29 05:03:18;;;;;;;1.35;0.35;;;;;;;12.63;86.96;102310.88;7388383;19;20035;-65
2022/01/29 05:05:45;;;;;;;0.88;0.40;;;;;;;12.63;86.31;102319.66;7387777;19;20099;-67
2022/01/29 05:08:13;;;;;;;0.60;0.20;;;;;;;12.62;86.25;102307.41;7388337;19;20091;-66
2022/01/29 05:10:40;;;;;;;0.47;0.20;;;;;;;12.65;86.31;102308.94;7389405;19;20007;-65
2022/01/29 05:13:11;;;;;;;3.08;0.80;;;;;;;12.69;86.71;102313.00;7388259;19;20042;-65
2022/01/29 05:15:44;;;;;;;1.77;0.50;;;;;;;12.69;86.02;102302.44;7388464;19;20024;-67
2022/01/29 05:28:13;;;;;;;0.80;0.30;;;;;;;12.74;84.84;102306.38;7388232;19;20413;-66
2022/01/29 05:30:40;;;;;;;0.80;0.38;;;;;;;12.71;84.29;102297.84;7390843;19;20452;-65
2022/01/29 05:33:08;;;;;;;1.50;0.13;;;;;;;12.71;84.61;102306.63;7386425;19;20479;-66
2022/01/29 05:35:35;;;;;;;4.07;1.83;;;;;;;12.70;84.45;102299.66;7386664;19;20018;-67
2022/01/29 05:38:02;;;;;;;0.60;0.30;;;;;;;12.69;84.77;102299.81;7388160;19;20020;-64
2022/01/29 05:40:30;;;;;;;0.85;0.30;;;;;;;12.67;84.35;102302.56;7389328;19;20019;-64
2022/01/29 05:42:57;;;;;;;0.80;0.35;;;;;;;12.66;84.51;102300.88;7386524;19;20074;-66
2022/01/29 05:45:24;;;;;;;1.20;0.40;;;;;;;12.62;85.06;102294.19;7390422;19;20022;-65
2022/01/29 05:47:52;;;;;;;1.85;0.30;;;;;;;12.58;85.22;102284.88;7385741;19;20014;-65
2022/01/29 05:50:19;;;;;;;1.02;0.25;;;;;;;12.58;85.36;102284.03;7387384;19;20460;-66
2022/01/29 05:52:46;;;;;;;1.38;0.13;;;;;;;12.57;85.11;102279.72;7387679;19;20011;-65
2022/01/29 05:55:13;;;;;;;2.38;0.60;;;;;;;12.56;84.67;102283.31;7391168;19;20032;-65
2022/01/29 05:57:40;;;;;;;0.75;0.30;;;;;;;12.56;85.11;102296.50;7393673;19;20088;-66
2022/01/29 06:00:08;;;;;;;0.40;0.20;;;;;;;12.58;85.13;102298.06;7395245;19;20014;-65
2022/01/29 06:02:35;;;;;;;1.55;0.40;;;;;;;12.59;84.41;102293.63;7394684;19;20568;-65
2022/01/29 06:05:03;;;;;;;0.60;0.30;;;;;;;12.59;84.37;102294.47;7398350;19;20086;-66
2022/01/29 06:07:30;;;;;;;0.50;0.20;;;;;;;12.59;84.26;102283.06;7392125;19;20019;-66
2022/01/29 06:09:58;;;;;;;0.50;0.20;;;;;;;12.60;83.78;102293.47;7393244;19;20014;-66
2022/01/29 06:12:32;;;;;;;0.60;0.20;;;;;;;12.61;83.99;102289.03;7394670;19;20014;-66
2022/01/29 06:14:59;;;;;;;0.82;0.20;;;;;;;12.60;83.82;102288.19;7393420;19;20010;-65
2022/01/29 06:17:26;;;;;;;0.40;0.20;;;;;;;12.59;83.72;102283.91;7397067;19;20543;-65
2022/01/29 06:19:54;;;;;;;0.30;0.20;;;;;;;12.60;84.13;102282.91;7394865;19;20719;-65
2022/01/29 06:22:22;;;;;;;0.98;0.20;;;;;;;12.60;83.87;102277.63;7394403;19;20571;-65
2022/01/29 06:24:49;;;;;;;0.65;0.20;;;;;;;12.61;83.74;102281.97;7394641;19;20120;-66
2022/01/29 06:27:16;;;;;;;1.67;1.13;;;;;;;12.61;83.54;102279.31;7396973;19;20532;-66
2022/01/29 06:29:43;;;;;;;0.88;0.38;;;;;;;12.61;83.51;102275.84;7393683;19;20011;-66
2022/01/29 06:32:10;;;;;;;1.13;0.28;;;;;;;12.58;83.88;102276.94;7394793;19;20014;-64
2022/01/29 06:34:38;;;;;;;0.63;0.30;;;;;;;12.57;83.99;102279.72;7394749;19;20074;-66
2022/01/29 06:37:05;;;;;;;0.45;0.20;;;;;;;12.56;84.04;102281.50;7395925;19;20397;-66
2022/01/29 06:39:32;;;;;;;0.60;0.30;;;;;;;12.56;83.97;102283.31;7392663;19;20006;-66
2022/01/29 06:41:59;;;;;;;1.45;0.30;;;;;;;12.57;84.44;102277.91;7392244;19;20027;-67
2022/01/29 06:44:26;;;;;;;0.60;0.20;;;;;;;12.57;83.76;102280.56;7392273;19;20066;-65
2022/01/29 06:46:53;;;;;;;2.92;0.63;;;;;;;12.58;84.10;102278.75;7392827;19;20011;-67
2022/01/29 06:49:21;;;;;;;0.80;0.30;;;;;;;12.59;83.58;102283.06;7395306;19;20232;-65
2022/01/29 06:51:48;;;;;;;2.53;0.40;;;;;;;12.60;84.01;102277.63;7392551;19;20333;-66
2022/01/29 06:54:15;;;;;;;0.63;0.28;;;;;;;12.62;84.02;102282.78;7393647;19;20500;-67
2022/01/29 06:56:42;;;;;;;3.28;1.80;;;;;;;12.61;83.72;102286.41;7393529;19;20010;-66
2022/01/29 06:59:09;;;;;;;1.20;0.50;;;;;;;12.64;84.64;102283.53;7393049;19;20011;-66
2022/01/29 07:01:38;;;;;;;0.52;0.20;;;;;;;12.65;84.10;102283.38;7391897;19;20011;-66
2022/01/29 07:04:05;;;;;;;0.95;0.40;;;;;;;12.64;84.48;102280.88;7392765;19;20021;-66
2022/01/29 07:06:33;;;;;;;3.63;1.85;;;;;;;12.65;84.53;102277.25;7395127;19;20427;-66
2022/01/29 07:09:00;;;;;;;3.35;1.42;;;;;;;12.65;84.61;102283.38;7392918;19;20508;-66
2022/01/29 07:11:27;;;;;;;3.25;1.70;;;;;;;12.64;84.59;102281.72;7391870;19;20496;-66
2022/01/29 07:16:24;;;;;;;1.20;0.47;;;;;;;12.68;84.50;102279.66;7393326;19;20114;-66
2022/01/29 07:18:51;;;;;;;3.45;0.60;;;;;;;12.69;84.37;102281.31;7396224;19;20014;-66
2022/01/29 07:21:19;;;;;;;1.50;0.40;;;;;;;12.70;84.54;102275.06;7392518;19;20077;-65
2022/01/29 07:23:46;;;;;;;3.33;1.75;;;;;;;12.72;85.02;102273.97;7392924;19;20090;-65
2022/01/29 07:26:13;;;;;;;5.78;2.72;;;;;;;12.72;85.03;102286.34;7396289;19;20014;-66
2022/01/29 07:28:40;;;;;;;2.33;1.10;;;;;;;12.71;85.12;102290.78;7390615;19;20408;-66
2022/01/29 07:31:07;;;;;;;2.47;1.15;;;;;;;12.72;85.51;102295.09;7393198;19;20010;-66
2022/01/29 07:33:35;;;;;;;2.10;1.13;;;;;;;12.75;85.84;102292.19;7391714;19;20011;-65
2022/01/29 07:36:02;;;;;;;1.67;0.50;;;;;;;12.75;84.81;102299.25;7392173;19;20044;-66
2022/01/29 07:38:29;;;;;;;2.92;1.17;;;;;;;12.77;84.94;102298.19;7392115;19;20046;-66
2022/01/29 07:40:57;;;;;;;1.00;0.43;;;;;;;12.80;85.47;102294.44;7391127;19;20010;-65
2022/01/29 07:43:27;;;;;;;1.23;0.45;;;;;;;12.81;84.50;102296.94;7391025;19;20078;-66
2022/01/29 07:45:57;;;;;;;0.82;0.32;;;;;;;12.81;84.56;102285.53;7389885;19;20010;-65
2022/01/29 07:48:24;;;;;;;0.80;0.30;;;;;;;12.82;84.58;102285.41;7390524;19;20006;-67
2022/01/29 07:50:54;;;;;;;2.35;0.82;;;;;;;12.83;84.59;102288.91;7389470;19;20799;-65
2022/01/29 07:53:22;;;;;;;1.10;0.57;;;;;;;12.83;83.48;102279.16;7393381;19;20070;-66
2022/01/29 07:55:49;;;;;;;1.52;0.52;;;;;;;12.85;83.60;102282.50;7393749;19;20487;-67
2022/01/29 07:58:16;;;;;;;0.98;0.30;;;;;;;12.85;83.78;102285.16;7387978;19;20095;-65
2022/01/29 08:00:43;;;;;;;2.63;0.65;;;;;;;12.86;83.33;102284.19;7390233;19;20517;-67
2022/01/29 08:03:11;;;;;;;1.90;0.60;;;;;;;12.88;83.80;102280.56;7390231;19;20084;-65
2022/01/29 08:05:39;;;;;;;0.93;0.20;;;;;;;12.88;83.69;102281.41;7390156;19;20017;-66
2022/01/29 08:08:14;;;;;;;2.88;0.30;;;;;;;12.84;83.09;102285.28;7391209;19;20015;-66
2022/01/29 08:10:41;;;;;;;2.80;0.25;;;;;;;12.86;83.50;102291.25;7392243;19;20032;-65
2022/01/29 08:13:08;;;;;;;1.20;0.30;;;;;;;12.87;82.97;102292.94;7389255;19;20027;-66
2022/01/29 08:15:35;;;;;;;0.75;0.28;;;;;;;12.85;82.98;102293.06;7392004;19;20038;-66
2022/01/29 08:18:03;;;;;;;0.68;0.30;;;;;;;12.86;82.55;102288.63;7391635;19;20113;-66
2022/01/29 08:20:30;;;;;;;3.75;1.23;;;;;;;12.88;82.98;102309.63;7388733;19;20053;-67
2022/01/29 08:22:57;;;;;;;0.80;0.30;;;;;;;12.90;83.47;102308.53;7392519;19;20011;-66
2022/01/29 08:25:25;;;;;;;0.43;0.10;;;;;;;12.91;82.35;102297.00;7393901;19;20007;-65
2022/01/29 08:27:52;;;;;;;1.08;0.30;;;;;;;12.91;82.96;102298.78;7388986;19;20010;-66
2022/01/29 08:30:20;;;;;;;1.10;0.20;;;;;;;12.92;82.82;102297.84;7392074;19;20050;-67
2022/01/29 08:32:47;;;;;;;4.53;0.40;;;;;;;12.89;82.33;102293.66;7390393;19;20122;-66
2022/01/29 08:35:15;;;;;;;3.00;0.35;;;;;;;12.86;81.71;102297.38;7388479;19;19999;-66
2022/01/29 08:37:44;;;;;;;1.80;0.40;;;;;;;12.86;82.30;102307.13;7387057;19;20081;-66
2022/01/29 08:40:15;;;;;;;5.22;0.30;;;;;;;12.81;80.75;102296.94;7388901;19;20038;-66
2022/01/29 08:42:42;;;;;;;3.63;0.93;;;;;;;12.81;81.84;102296.09;7390115;19;20020;-66
2022/01/29 08:45:10;;;;;;;5.85;0.30;;;;;;;12.84;81.87;102306.44;7393771;19;20721;-66
2022/01/29 08:47:39;;;;;;;1.10;0.25;;;;;;;12.86;81.88;102310.59;7392672;19;20014;-65
2022/01/29 08:50:08;;;;;;;1.65;0.38;;;;;;;12.92;81.92;102316.31;7389952;19;20100;-66
2022/01/29 08:52:36;;;;;;;0.50;0.13;;;;;;;12.94;81.36;102304.69;7388214;19;20176;-66
2022/01/29 08:55:06;;;;;;;2.28;0.30;;;;;;;12.97;80.98;102295.63;7391613;19;20027;-66
2022/01/29 08:57:33;;;;;;;0.80;0.20;;;;;;;13.00;81.67;102293.59;7387773;19;20421;-66
2022/01/29 09:00:00;;;;;;;0.88;0.20;;;;;;;13.05;81.43;102282.63;7388156;19;20413;-66
2022/01/29 09:02:28;;;;;;;0.70;0.30;;;;;;;13.07;81.68;102292.06;7389221;19;20015;-66
2022/01/29 09:04:57;;;;;;;0.70;0.20;;;;;;;13.04;80.93;102275.66;7392059;19;20014;-66
2022/01/29 09:07:26;;;;;;;0.45;0.30;;;;;;;13.08;81.07;102285.81;7387991;19;20066;-65
2022/01/29 09:09:54;;;;;;;0.90;0.30;;;;;;;13.13;81.67;102286.28;7387831;19;20019;-64
2022/01/29 09:12:22;;;;;;;0.73;0.10;;;;;;;13.15;80.96;102278.25;7385734;19;20007;-66
2022/01/29 09:14:49;;;;;;;1.40;0.63;;;;;;;13.17;80.59;102285.03;7389314;19;20014;-66
2022/01/29 09:17:16;;;;;;;1.88;0.20;;;;;;;13.19;80.41;102267.25;7392687;19;20540;-66
2022/01/29 09:19:43;;;;;;;1.20;0.43;;;;;;;13.24;80.49;102270.34;7387454;19;20019;-67
2022/01/29 09:22:11;;;;;;;1.17;0.20;;;;;;;13.27;80.51;102256.84;7386934;19;20014;-66
2022/01/29 09:24:38;;;;;;;0.47;0.10;;;;;;;13.34;79.42;102261.59;7388935;19;20034;-67
2022/01/29 09:27:06;;;;;;;0.40;0.10;;;;;;;13.37;79.75;102264.78;7387284;19;20011;-65
2022/01/29 09:29:33;;;;;;;2.47;0.10;;;;;;;13.41;79.29;102262.75;7386504;19;20102;-67
2022/01/29 09:32:00;;;;;;;1.15;0.20;;;;;;;13.41;79.05;102268.03;7393982;19;20031;-65
2022/01/29 09:34:27;;;;;;;2.42;0.20;;;;;;;13.42;79.40;102274.97;7399092;19;20019;-65
2022/01/29 09:36:54;;;;;;;1.98;0.10;;;;;;;13.43;79.47;102266.91;7394246;19;20073;-65
2022/01/29 09:39:21;;;;;;;0.80;0.20;;;;;;;13.46;79.16;102274.56;7394232;19;20006;-65
2022/01/29 09:41:49;;;;;;;1.27;0.30;;;;;;;13.49;78.87;102252.31;7396014;19;20046;-66
2022/01/29 09:44:16;;;;;;;0.68;0.30;;;;;;;13.52;80.05;102267.88;7397885;19;20085;-67
2022/01/29 09:46:46;;;;;;;1.48;0.20;;;;;;;13.53;78.74;102266.91;7397406;19;20038;-65
2022/01/29 09:49:14;;;;;;;3.17;0.68;;;;;;;13.53;79.26;102264.28;7390766;19;20007;-66
2022/01/29 09:51:42;;;;;;;1.13;0.30;;;;;;;13.54;78.82;102268.59;7393456;19;20011;-67
2022/01/29 09:54:10;;;;;;;1.00;0.20;;;;;;;13.53;78.73;102262.47;7397348;19;20378;-67
2022/01/29 09:56:37;;;;;;;1.65;0.40;;;;;;;13.50;78.90;102267.19;7393666;19;20019;-66
2022/01/29 09:59:04;;;;;;;1.13;0.17;;;;;;;13.53;80.31;102277.50;7393680;19;20057;-66
2022/01/29 10:01:31;;;;;;;3.92;2.45;;;;;;;13.51;80.10;102263.59;7398531;19;20085;-66
2022/01/29 10:04:00;;;;;;;2.13;0.40;;;;;;;13.48;79.96;102267.31;7393812;19;20044;-66
2022/01/29 10:06:29;;;;;;;0.80;0.30;;;;;;;13.50;79.17;102261.91;7392376;19;20011;-65
2022/01/29 10:08:59;;;;;;;1.92;0.30;;;;;;;13.52;78.87;102265.25;7392578;19;20110;-66
2022/01/29 10:11:27;;;;;;;1.35;0.35;;;;;;;13.54;79.20;102258.84;7395479;19;20021;-67
2022/01/29 10:13:59;;;;;;;0.40;0.20;;;;;;;13.56;78.89;102275.41;7397673;19;20082;-65
2022/01/29 10:16:29;;;;;;;2.08;0.25;;;;;;;13.62;78.59;102266.09;7394224;19;20022;-66
2022/01/29 10:19:06;;;;;;;0.50;0.20;;;;;;;13.64;78.24;102266.81;7397638;19;20347;-66
2022/01/29 10:21:41;;;;;;;0.55;0.20;;;;;;;13.67;78.26;102274.44;7393084;19;20086;-65
2022/01/29 10:24:11;;;;;;;3.72;0.30;;;;;;;13.73;78.31;102281.00;7394492;19;20516;-65
2022/01/29 10:26:40;;;;;;;0.88;0.30;;;;;;;13.79;77.90;102283.94;7398503;19;20503;-66
2022/01/29 10:29:19;;;;;;;2.10;0.30;;;;;;;13.84;78.16;102286.19;7392915;19;20029;-66
2022/01/29 10:31:48;;;;;;;0.77;0.20;;;;;;;13.86;77.43;102294.81;7395964;19;20003;-68
2022/01/29 10:34:17;;;;;;;30.52;11.90;;;;;;;13.93;76.95;102303.88;7395474;19;20089;-66
2022/01/29 10:36:45;;;;;;;12.00;3.90;;;;;;;13.96;76.94;102301.81;7393246;19;20027;-65
2022/01/29 10:39:12;;;;;;;2.25;0.82;;;;;;;14.01;77.21;102293.44;7396419;19;20448;-67
2022/01/29 10:41:40;;;;;;;2.22;0.45;;;;;;;14.05;77.13;102298.31;7394879;19;20017;-66
2022/01/29 10:46:42;;;;;;;2.10;0.20;;;;;;;14.19;76.09;102297.06;7396431;19;20369;-66
2022/01/29 10:49:18;;;;;;;1.92;0.20;;;;;;;14.23;75.91;102289.66;7391407;19;20014;-67
2022/01/29 10:51:51;;;;;;;0.35;0.10;;;;;;;14.25;76.01;102277.97;7391910;19;20007;-67
2022/01/29 10:54:20;;;;;;;1.98;0.20;;;;;;;14.28;75.31;102285.63;7394873;19;20017;-65
2022/01/29 10:56:52;;;;;;;1.58;0.40;;;;;;;14.33;75.46;102266.66;7387681;19;20018;-66
2022/01/29 10:59:21;;;;;;;0.30;0.20;;;;;;;14.35;75.53;102273.50;7391074;19;20353;-66
2022/01/29 11:01:51;;;;;;;1.55;0.30;;;;;;;14.40;75.63;102266.00;7393867;19;20350;-66
2022/01/29 11:04:18;;;;;;;2.47;0.10;;;;;;;14.45;75.25;102282.28;7394142;19;20192;-67
2022/01/29 11:06:47;;;;;;;0.68;0.30;;;;;;;14.51;74.55;102273.78;7392130;19;20018;-66
2022/01/29 11:09:18;;;;;;;1.80;0.27;;;;;;;14.53;74.30;102263.88;7391580;19;20011;-67
2022/01/29 11:11:48;;;;;;;1.38;0.10;;;;;;;14.57;74.20;102251.19;7394089;19;20295;-67
2022/01/29 11:14:19;;;;;;;1.25;0.15;;;;;;;14.60;74.70;102228.84;7393075;19;20082;-66
2022/01/29 11:16:48;;;;;;;3.28;0.22;;;;;;;14.61;74.06;102230.53;7392893;19;20020;-65
2022/01/29 11:19:21;;;;;;;1.63;0.40;;;;;;;14.65;74.39;102235.41;7392288;19;20030;-67
2022/01/29 11:21:52;;;;;;;0.55;0.22;;;;;;;14.71;74.47;102234.00;7393442;19;20046;-66
2022/01/29 11:24:23;;;;;;;1.23;0.40;;;;;;;14.77;74.68;102228.13;7391799;19;20105;-71
2022/01/29 11:26:50;;;;;;;1.33;0.30;;;;;;;14.79;73.81;102228.78;7392780;19;20074;-66
2022/01/29 11:29:23;;;;;;;1.05;0.17;;;;;;;14.80;73.72;102227.81;7392679;19;20023;-66
2022/01/29 11:31:57;;;;;;;1.27;0.30;;;;;;;14.81;74.32;102225.03;7392169;19;20031;-67
2022/01/29 11:34:24;;;;;;;1.25;0.20;;;;;;;14.82;73.69;102212.63;7391803;19;20018;-65
2022/01/29 11:36:52;;;;;;;2.75;0.30;;;;;;;14.78;73.64;102214.69;7389242;19;20014;-66
2022/01/29 11:39:20;;;;;;;1.58;0.30;;;;;;;14.74;73.52;102210.69;7392125;19;20078;-67
2022/01/29 11:41:54;;;;;;;3.30;0.30;;;;;;;14.75;73.65;102203.56;7389780;19;20079;-67
2022/01/29 11:44:25;;;;;;;2.47;0.30;;;;;;;14.72;73.54;102215.31;7386779;19;20081;-66
2022/01/29 11:46:52;;;;;;;1.52;0.30;;;;;;;14.71;73.74;102208.31;7391354;19;20022;-66
2022/01/29 11:49:21;;;;;;;0.75;0.22;;;;;;;14.68;73.31;102224.50;7383804;19;20011;-65